createdAt,value
2018-10-12T00:00:51.660Z,1005.77
2018-10-12T00:01:51.665Z,1005.75
2018-10-12T00:02:51.649Z,1005.80
2018-10-12T00:03:51.660Z,1005.80
2018-10-12T00:04:51.652Z,1005.87
2018-10-12T00:05:51.652Z,1005.84
2018-10-12T00:06:51.651Z,1005.87
2018-10-12T00:07:51.649Z,1005.90
2018-10-12T00:08:51.655Z,1005.92
2018-10-12T00:09:51.671Z,1005.92
2018-10-12T00:10:51.648Z,1005.92
2018-10-12T00:11:51.655Z,1005.95
2018-10-12T00:12:51.653Z,1005.89
2018-10-12T00:13:51.662Z,1005.86
2018-10-12T00:14:51.676Z,1005.86
2018-10-12T00:15:51.646Z,1005.92
2018-10-12T00:16:51.651Z,1005.93
2018-10-12T00:17:51.659Z,1005.91
2018-10-12T00:18:51.649Z,1005.92
2018-10-12T00:19:51.651Z,1005.94
2018-10-12T00:20:51.650Z,1005.90
2018-10-12T00:21:51.651Z,1005.92
2018-10-12T00:22:51.647Z,1005.91
2018-10-12T00:23:51.649Z,1005.93
2018-10-12T00:24:51.644Z,1005.94
2018-10-12T00:25:51.640Z,1005.92
2018-10-12T00:26:51.646Z,1005.90
2018-10-12T00:27:51.644Z,1005.94
2018-10-12T00:28:51.669Z,1005.94
2018-10-12T00:29:51.641Z,1005.97
2018-10-12T00:30:51.649Z,1006.00
2018-10-12T00:31:51.645Z,1005.98
2018-10-12T00:32:51.652Z,1005.97
2018-10-12T00:33:51.644Z,1006.00
2018-10-12T00:34:51.644Z,1006.03
2018-10-12T00:35:51.649Z,1006.04
2018-10-12T00:36:51.639Z,1006.06
2018-10-12T00:37:51.638Z,1006.09
2018-10-12T00:38:51.643Z,1006.05
2018-10-12T00:39:51.645Z,1006.05
2018-10-12T00:40:51.644Z,1006.02
2018-10-12T00:41:51.641Z,1006.02
2018-10-12T00:42:51.648Z,1006.01
2018-10-12T00:43:51.632Z,1005.96
2018-10-12T00:44:51.639Z,1005.97
2018-10-12T00:45:51.643Z,1005.98
2018-10-12T00:46:51.633Z,1005.93
2018-10-12T00:47:51.631Z,1005.91
2018-10-12T00:48:51.637Z,1005.90
2018-10-12T00:49:51.731Z,1005.94
2018-10-12T00:50:51.636Z,1005.99
2018-10-12T00:51:51.631Z,1006.08
2018-10-12T00:52:51.632Z,1006.09
2018-10-12T00:53:51.632Z,1006.10
2018-10-12T00:54:51.628Z,1006.07
2018-10-12T00:55:51.630Z,1006.02
2018-10-12T00:56:51.631Z,1006.04
2018-10-12T00:57:51.636Z,1006.07
2018-10-12T00:58:51.631Z,1006.07
2018-10-12T00:59:51.627Z,1006.05
2018-10-12T01:00:51.633Z,1006.02
2018-10-12T01:01:51.623Z,1006.06
2018-10-12T01:02:51.629Z,1006.07
2018-10-12T01:03:51.618Z,1006.02
2018-10-12T01:04:51.645Z,1006.07
2018-10-12T01:05:51.626Z,1006.03
2018-10-12T01:06:51.634Z,1006.04
2018-10-12T01:07:51.628Z,1006.03
2018-10-12T01:08:51.622Z,1006.05
2018-10-12T01:09:51.619Z,1006.05
2018-10-12T01:10:51.621Z,1006.11
2018-10-12T01:11:51.626Z,1006.11
2018-10-12T01:12:51.619Z,1006.10
2018-10-12T01:13:51.627Z,1006.11
2018-10-12T01:14:51.614Z,1006.13
2018-10-12T01:15:51.619Z,1006.12
2018-10-12T01:16:51.615Z,1006.15
2018-10-12T01:17:51.621Z,1006.10
2018-10-12T01:18:51.615Z,1006.11
2018-10-12T01:19:51.625Z,1006.11
2018-10-12T01:20:51.610Z,1006.13
2018-10-12T01:21:51.613Z,1006.20
2018-10-12T01:22:51.607Z,1006.21
2018-10-12T01:23:51.615Z,1006.19
2018-10-12T01:24:51.617Z,1006.18
2018-10-12T01:25:51.617Z,1006.22
2018-10-12T01:26:51.609Z,1006.22
2018-10-12T01:27:51.618Z,1006.26
2018-10-12T01:28:51.609Z,1006.28
2018-10-12T01:29:51.611Z,1006.30
2018-10-12T01:30:51.601Z,1006.31
2018-10-12T01:31:51.602Z,1006.32
2018-10-12T01:32:51.605Z,1006.32
2018-10-12T01:33:51.618Z,1006.31
2018-10-12T01:34:51.600Z,1006.30
2018-10-12T01:35:51.610Z,1006.32
2018-10-12T01:36:51.600Z,1006.31
2018-10-12T01:37:51.603Z,1006.33
2018-10-12T01:38:51.600Z,1006.25
2018-10-12T01:39:51.603Z,1006.24
2018-10-12T01:40:51.598Z,1006.26
2018-10-12T01:41:51.602Z,1006.30
2018-10-12T01:42:51.598Z,1006.29
2018-10-12T01:43:51.589Z,1006.29
2018-10-12T01:44:51.596Z,1006.30
2018-10-12T01:45:51.596Z,1006.35
2018-10-12T01:46:51.598Z,1006.39
2018-10-12T01:47:51.595Z,1006.35
2018-10-12T01:48:51.586Z,1006.37
2018-10-12T01:49:51.594Z,1006.42
2018-10-12T01:50:51.596Z,1006.40
2018-10-12T01:51:51.588Z,1006.40
2018-10-12T01:52:51.591Z,1006.34
2018-10-12T01:53:51.589Z,1006.37
2018-10-12T01:54:51.581Z,1006.36
2018-10-12T01:55:51.586Z,1006.33
2018-10-12T01:56:51.581Z,1006.38
2018-10-12T01:57:51.583Z,1006.41
2018-10-12T01:58:51.579Z,1006.44
2018-10-12T01:59:51.582Z,1006.44
2018-10-12T02:00:51.579Z,1006.50
2018-10-12T02:01:51.576Z,1006.48
2018-10-12T02:02:51.575Z,1006.53
2018-10-12T02:03:51.582Z,1006.52
2018-10-12T02:04:51.581Z,1006.54
2018-10-12T02:05:51.576Z,1006.54
2018-10-12T02:06:51.574Z,1006.53
2018-10-12T02:07:51.580Z,1006.53
2018-10-12T02:08:51.571Z,1006.59
2018-10-12T02:09:51.584Z,1006.56
2018-10-12T02:10:51.570Z,1006.57
2018-10-12T02:11:51.570Z,1006.62
2018-10-12T02:12:51.570Z,1006.64
2018-10-12T02:13:51.563Z,1006.62
2018-10-12T02:14:51.569Z,1006.63
2018-10-12T02:15:51.560Z,1006.60
2018-10-12T02:16:51.557Z,1006.56
2018-10-12T02:17:51.570Z,1006.57
2018-10-12T02:18:51.571Z,1006.55
2018-10-12T02:19:51.561Z,1006.62
2018-10-12T02:20:51.560Z,1006.59
2018-10-12T02:21:51.558Z,1006.59
2018-10-12T02:22:51.589Z,1006.64
2018-10-12T02:23:51.552Z,1006.64
2018-10-12T02:24:51.569Z,1006.66
2018-10-12T02:25:51.565Z,1006.65
2018-10-12T02:26:51.558Z,1006.71
2018-10-12T02:27:51.571Z,1006.78
2018-10-12T02:28:51.548Z,1006.80
2018-10-12T02:29:51.549Z,1006.86
2018-10-12T02:30:51.548Z,1006.87
2018-10-12T02:31:51.552Z,1006.91
2018-10-12T02:32:51.541Z,1006.94
2018-10-12T02:33:51.545Z,1007.03
2018-10-12T02:34:51.542Z,1007.03
2018-10-12T02:35:51.552Z,1007.06
2018-10-12T02:36:51.539Z,1007.10
2018-10-12T02:37:51.540Z,1007.12
2018-10-12T02:38:51.533Z,1007.12
2018-10-12T02:39:51.599Z,1007.09
2018-10-12T02:40:51.532Z,1007.08
2018-10-12T02:41:51.536Z,1007.08
2018-10-12T02:42:51.532Z,1007.11
2018-10-12T02:43:51.529Z,1007.11
2018-10-12T02:44:51.532Z,1007.09
2018-10-12T02:45:51.528Z,1007.11
2018-10-12T02:46:51.530Z,1007.13
2018-10-12T02:47:51.528Z,1007.11
2018-10-12T02:48:51.523Z,1007.14
2018-10-12T02:50:00.169Z,1007.11
2018-10-12T02:51:44.984Z,1007.09
2018-10-12T02:52:44.912Z,1007.09
2018-10-12T02:53:44.909Z,1007.02
2018-10-12T02:54:44.909Z,1007.01
2018-10-12T02:55:44.919Z,1007.00
2018-10-12T03:15:10.971Z,1007.09
2018-10-12T03:16:10.952Z,1007.09
2018-10-12T03:17:10.949Z,1007.08
2018-10-12T03:18:10.935Z,1007.08
2018-10-12T03:19:10.938Z,1007.07
2018-10-12T03:20:10.928Z,1007.07
2018-10-12T03:21:10.926Z,1007.10
2018-10-12T03:22:10.926Z,1007.10
2018-10-12T03:23:10.915Z,1007.11
2018-10-12T03:24:10.912Z,1007.06
2018-10-12T03:25:10.911Z,1007.11
2018-10-12T03:26:10.907Z,1007.10
2018-10-12T03:27:10.908Z,1007.10
2018-10-12T03:28:10.895Z,1007.09
2018-10-12T03:29:10.897Z,1007.10
2018-10-12T03:30:10.900Z,1007.12
2018-10-12T03:31:10.898Z,1007.14
2018-10-12T03:32:10.959Z,1007.16
2018-10-12T03:33:10.890Z,1007.16
2018-10-12T03:34:10.898Z,1007.20
2018-10-12T03:35:10.888Z,1007.14
2018-10-12T03:36:10.883Z,1007.15
2018-10-12T03:37:10.920Z,1007.12
2018-10-12T03:38:10.879Z,1007.10
2018-10-12T03:39:10.872Z,1007.15
2018-10-12T03:40:10.869Z,1007.15
2018-10-12T03:41:10.869Z,1007.11
2018-10-12T03:42:10.874Z,1007.08
2018-10-12T03:43:10.871Z,1007.12
2018-10-12T03:44:10.867Z,1007.13
2018-10-12T03:45:10.869Z,1007.18
2018-10-12T03:46:10.873Z,1007.18
2018-10-12T03:47:10.864Z,1007.17
2018-10-12T03:48:10.870Z,1007.18
2018-10-12T03:49:10.860Z,1007.20
2018-10-12T03:50:10.858Z,1007.23
2018-10-12T03:51:10.858Z,1007.27
2018-10-12T03:52:10.849Z,1007.26
2018-10-12T03:53:10.855Z,1007.27
2018-10-12T03:54:10.851Z,1007.24
2018-10-12T03:55:10.850Z,1007.29
2018-10-12T03:56:10.850Z,1007.30
2018-10-12T03:57:10.845Z,1007.29
2018-10-12T03:58:10.841Z,1007.37
2018-10-12T03:59:10.842Z,1007.35
2018-10-12T04:00:10.844Z,1007.38
2018-10-12T04:01:10.844Z,1007.40
2018-10-12T04:02:10.839Z,1007.45
2018-10-12T04:03:10.839Z,1007.46
2018-10-12T04:04:10.828Z,1007.51
2018-10-12T04:05:10.834Z,1007.50
2018-10-12T04:06:10.830Z,1007.55
2018-10-12T04:07:10.834Z,1007.59
2018-10-12T04:08:10.827Z,1007.61
2018-10-12T04:09:10.827Z,1007.63
2018-10-12T04:10:10.824Z,1007.62
2018-10-12T04:11:10.830Z,1007.62
2018-10-12T04:12:10.819Z,1007.63
2018-10-12T04:13:10.824Z,1007.67
2018-10-12T04:14:10.812Z,1007.71
2018-10-12T04:15:10.816Z,1007.71
2018-10-12T04:16:10.816Z,1007.76
2018-10-12T04:17:10.808Z,1007.76
2018-10-12T04:18:10.867Z,1007.79
2018-10-12T04:19:10.817Z,1007.80
2018-10-12T04:20:10.803Z,1007.75
2018-10-12T04:21:10.806Z,1007.81
2018-10-12T04:22:10.805Z,1007.78
2018-10-12T04:23:10.807Z,1007.83
2018-10-12T04:24:10.808Z,1007.87
2018-10-12T04:25:10.795Z,1007.87
2018-10-12T04:26:10.792Z,1007.91
2018-10-12T04:27:10.786Z,1007.90
2018-10-12T04:28:10.790Z,1007.94
2018-10-12T04:29:10.784Z,1007.91
2018-10-12T04:30:10.784Z,1007.97
2018-10-12T04:31:10.792Z,1007.99
2018-10-12T04:32:10.785Z,1008.00
2018-10-12T04:33:10.778Z,1007.98
2018-10-12T04:34:10.773Z,1007.98
2018-10-12T04:35:10.778Z,1008.00
2018-10-12T04:36:10.787Z,1008.00
2018-10-12T04:37:10.785Z,1007.99
2018-10-12T04:38:10.771Z,1008.01
2018-10-12T04:39:10.767Z,1008.00
2018-10-12T04:40:10.767Z,1008.02
2018-10-12T04:41:10.766Z,1008.01
2018-10-12T04:42:10.767Z,1008.00
2018-10-12T04:43:10.757Z,1008.03
2018-10-12T04:44:10.756Z,1008.00
2018-10-12T04:45:10.764Z,1008.04
2018-10-12T04:46:10.752Z,1008.06
2018-10-12T04:47:10.814Z,1008.14
2018-10-12T04:48:10.761Z,1008.10
2018-10-12T04:49:10.764Z,1008.11
2018-10-12T04:50:10.760Z,1008.14
2018-10-12T04:51:10.748Z,1008.10
2018-10-12T04:52:10.738Z,1008.15
2018-10-12T04:53:10.741Z,1008.13
2018-10-12T04:54:10.744Z,1008.14
2018-10-12T04:55:10.737Z,1008.09
2018-10-12T04:56:10.747Z,1008.13
2018-10-12T04:57:10.732Z,1008.14
2018-10-12T04:58:10.758Z,1008.14
2018-10-12T04:59:10.742Z,1008.10
2018-10-12T05:00:10.733Z,1008.12
2018-10-12T05:01:10.796Z,1008.14
2018-10-12T05:02:10.729Z,1008.21
2018-10-12T05:03:10.722Z,1008.19
2018-10-12T05:04:10.748Z,1008.25
2018-10-12T05:05:10.724Z,1008.30
2018-10-12T05:06:10.728Z,1008.32
2018-10-12T05:07:10.714Z,1008.34
2018-10-12T05:08:10.718Z,1008.38
2018-10-12T05:09:10.714Z,1008.37
2018-10-12T05:10:10.739Z,1008.45
2018-10-12T05:11:10.709Z,1008.49
2018-10-12T05:12:10.696Z,1008.52
2018-10-12T05:13:10.734Z,1008.55
2018-10-12T05:14:10.716Z,1008.57
2018-10-12T05:15:10.713Z,1008.55
2018-10-12T05:16:10.683Z,1008.56
2018-10-12T05:17:10.693Z,1008.58
2018-10-12T05:18:10.708Z,1008.63
2018-10-12T05:19:10.679Z,1008.62
2018-10-12T05:20:10.686Z,1008.60
2018-10-12T05:21:10.680Z,1008.63
2018-10-12T05:22:10.764Z,1008.67
2018-10-12T05:23:10.677Z,1008.62
2018-10-12T05:24:10.694Z,1008.59
2018-10-12T05:25:10.692Z,1008.63
2018-10-12T05:26:10.677Z,1008.60
2018-10-12T05:27:10.674Z,1008.60
2018-10-12T05:28:10.665Z,1008.60
2018-10-12T05:29:10.664Z,1008.55
2018-10-12T05:30:10.693Z,1008.59
2018-10-12T05:31:10.652Z,1008.60
2018-10-12T05:32:10.656Z,1008.63
2018-10-12T05:33:10.650Z,1008.66
2018-10-12T05:34:10.661Z,1008.66
2018-10-12T05:35:10.672Z,1008.70
2018-10-12T05:36:10.838Z,1008.67
2018-10-12T05:37:10.639Z,1008.71
2018-10-12T05:38:10.646Z,1008.69
2018-10-12T05:39:10.638Z,1008.70
2018-10-12T05:40:10.653Z,1008.70
2018-10-12T05:41:10.638Z,1008.71
2018-10-12T05:42:10.631Z,1008.69
2018-10-12T05:43:10.703Z,1008.74
2018-10-12T05:44:10.640Z,1008.78
2018-10-12T05:45:10.629Z,1008.81
2018-10-12T05:46:10.619Z,1008.83
2018-10-12T05:47:10.636Z,1008.82
2018-10-12T05:48:10.633Z,1008.85
2018-10-12T05:49:10.619Z,1008.87
2018-10-12T05:50:10.616Z,1008.90
2018-10-12T05:51:10.615Z,1008.87
2018-10-12T05:52:10.608Z,1008.89
2018-10-12T05:53:10.616Z,1008.87
2018-10-12T05:54:10.627Z,1008.87
2018-10-12T05:55:10.611Z,1008.84
2018-10-12T05:56:10.603Z,1008.85
2018-10-12T05:57:10.600Z,1008.84
2018-10-12T05:58:10.594Z,1008.84
2018-10-12T05:59:10.602Z,1008.90
2018-10-12T06:00:10.594Z,1008.91
2018-10-12T06:01:10.612Z,1008.91
2018-10-12T06:02:10.589Z,1008.91
2018-10-12T06:03:10.582Z,1008.98
2018-10-12T06:04:10.579Z,1009.02
2018-10-12T06:05:10.574Z,1009.01
2018-10-12T06:06:10.589Z,1009.01
2018-10-12T06:07:10.584Z,1009.04
2018-10-12T06:08:10.587Z,1009.02
2018-10-12T06:09:10.569Z,1009.06
2018-10-12T06:10:10.633Z,1009.05
2018-10-12T06:11:10.573Z,1009.08
2018-10-12T06:12:10.573Z,1009.10
2018-10-12T06:13:10.563Z,1009.08
2018-10-12T06:14:10.557Z,1009.12
2018-10-12T06:15:10.554Z,1009.09
2018-10-12T06:16:10.553Z,1009.08
2018-10-12T06:17:10.581Z,1009.07
2018-10-12T06:18:10.544Z,1009.00
2018-10-12T06:19:10.576Z,1009.03
2018-10-12T06:20:10.552Z,1009.06
2018-10-12T06:21:10.571Z,1009.10
2018-10-12T06:22:10.544Z,1009.13
2018-10-12T06:23:10.539Z,1009.17
2018-10-12T06:24:10.544Z,1009.23
2018-10-12T06:25:10.528Z,1009.27
2018-10-12T06:26:10.538Z,1009.30
2018-10-12T06:27:10.532Z,1009.32
2018-10-12T06:28:10.531Z,1009.35
2018-10-12T06:29:10.520Z,1009.38
2018-10-12T06:30:10.523Z,1009.35
2018-10-12T06:31:10.533Z,1009.38
2018-10-12T06:32:10.527Z,1009.41
2018-10-12T06:33:10.598Z,1009.37
2018-10-12T06:34:10.548Z,1009.41
2018-10-12T06:35:10.517Z,1009.43
2018-10-12T06:36:10.535Z,1009.47
2018-10-12T06:37:10.539Z,1009.49
2018-10-12T06:38:10.502Z,1009.52
2018-10-12T06:39:10.524Z,1009.55
2018-10-12T06:40:10.506Z,1009.56
2018-10-12T06:41:10.540Z,1009.55
2018-10-12T06:42:10.522Z,1009.60
2018-10-12T06:43:10.488Z,1009.64
2018-10-12T06:44:10.544Z,1009.71
2018-10-12T06:45:10.508Z,1009.69
2018-10-12T06:46:10.485Z,1009.73
2018-10-12T06:47:10.560Z,1009.68
2018-10-12T06:48:10.577Z,1009.72
2018-10-12T06:49:10.484Z,1009.71
2018-10-12T06:50:10.574Z,1009.71
2018-10-12T06:51:10.479Z,1009.74
2018-10-12T06:52:10.494Z,1009.79
2018-10-12T06:53:10.475Z,1009.82
2018-10-12T06:54:10.491Z,1009.86
2018-10-12T06:55:10.572Z,1009.84
2018-10-12T06:56:10.492Z,1009.88
2018-10-12T06:57:10.520Z,1009.81
2018-10-12T06:58:10.501Z,1009.78
2018-10-12T06:59:10.508Z,1009.78
2018-10-12T07:00:10.524Z,1009.77
2018-10-12T07:01:10.631Z,1009.76
2018-10-12T07:02:10.458Z,1009.79
2018-10-12T07:03:10.467Z,1009.82
2018-10-12T07:04:10.459Z,1009.82
2018-10-12T07:05:10.469Z,1009.82
2018-10-12T07:06:10.455Z,1009.82
2018-10-12T07:07:10.457Z,1009.79
2018-10-12T07:08:10.449Z,1009.78
2018-10-12T07:09:10.444Z,1009.77
2018-10-12T07:10:10.468Z,1009.76
2018-10-12T07:11:10.443Z,1009.80
2018-10-12T07:12:10.439Z,1009.79
2018-10-12T07:13:10.485Z,1009.83
2018-10-12T07:14:10.437Z,1009.82
2018-10-12T07:15:10.441Z,1009.77
2018-10-12T07:16:10.426Z,1009.76
2018-10-12T07:17:10.429Z,1009.75
2018-10-12T07:18:10.430Z,1009.75
2018-10-12T07:19:10.424Z,1009.74
2018-10-12T07:20:10.421Z,1009.76
2018-10-12T07:21:10.417Z,1009.75
2018-10-12T07:22:10.418Z,1009.74
2018-10-12T07:23:10.414Z,1009.74
2018-10-12T07:24:10.412Z,1009.73
2018-10-12T07:25:10.417Z,1009.77
2018-10-12T07:26:10.414Z,1009.79
2018-10-12T07:27:10.410Z,1009.77
2018-10-12T07:28:10.407Z,1009.83
2018-10-12T07:29:10.404Z,1009.83
2018-10-12T07:30:10.402Z,1009.86
2018-10-12T07:31:10.418Z,1009.87
2018-10-12T07:32:10.448Z,1009.86
2018-10-12T07:33:10.391Z,1009.88
2018-10-12T07:34:10.394Z,1009.88
2018-10-12T07:35:10.393Z,1009.89
2018-10-12T07:36:10.389Z,1009.93
2018-10-12T07:37:10.449Z,1009.95
2018-10-12T07:38:10.381Z,1009.96
2018-10-12T07:39:10.384Z,1009.96
2018-10-12T07:40:10.388Z,1009.92
2018-10-12T07:41:10.397Z,1009.92
2018-10-12T07:42:10.392Z,1009.94
2018-10-12T07:43:10.384Z,1009.93
2018-10-12T07:44:10.373Z,1009.93
2018-10-12T07:45:10.375Z,1009.97
2018-10-12T07:46:10.376Z,1010.00
2018-10-12T07:47:10.378Z,1010.02
2018-10-12T07:48:10.443Z,1010.08
2018-10-12T07:49:10.369Z,1010.10
2018-10-12T07:50:10.365Z,1010.10
2018-10-12T07:51:10.363Z,1010.09
2018-10-12T07:52:10.381Z,1010.16
2018-10-12T07:53:10.371Z,1010.20
2018-10-12T07:54:10.363Z,1010.20
2018-10-12T07:55:10.357Z,1010.23
2018-10-12T07:56:10.369Z,1010.21
2018-10-12T07:57:10.346Z,1010.17
2018-10-12T07:58:10.350Z,1010.18
2018-10-12T07:59:10.350Z,1010.21
2018-10-12T08:00:10.422Z,1010.19
2018-10-12T08:01:10.667Z,1010.22
2018-10-12T08:02:10.348Z,1010.24
2018-10-12T08:03:10.352Z,1010.23
2018-10-12T08:04:10.341Z,1010.26
2018-10-12T08:05:10.347Z,1010.29
2018-10-12T08:06:10.442Z,1010.36
2018-10-12T08:07:10.354Z,1010.40
2018-10-12T08:08:10.335Z,1010.41
2018-10-12T08:09:10.339Z,1010.39
2018-10-12T08:10:10.331Z,1010.39
2018-10-12T08:11:10.332Z,1010.40
2018-10-12T08:12:10.376Z,1010.36
2018-10-12T08:13:10.334Z,1010.42
2018-10-12T08:14:10.339Z,1010.43
2018-10-12T08:15:10.331Z,1010.48
2018-10-12T08:16:10.342Z,1010.46
2018-10-12T08:17:10.329Z,1010.49
2018-10-12T08:18:10.332Z,1010.53
2018-10-12T08:19:10.332Z,1010.51
2018-10-12T08:20:10.359Z,1010.54
2018-10-12T08:21:10.333Z,1010.53
2018-10-12T08:22:10.328Z,1010.55
2018-10-12T08:23:10.320Z,1010.59
2018-10-12T08:24:10.323Z,1010.55
2018-10-12T08:25:10.313Z,1010.53
2018-10-12T08:26:10.319Z,1010.48
2018-10-12T08:27:10.336Z,1010.46
2018-10-12T08:28:10.315Z,1010.50
2018-10-12T08:29:10.314Z,1010.52
2018-10-12T08:30:10.310Z,1010.51
2018-10-12T08:31:10.314Z,1010.52
2018-10-12T08:32:10.317Z,1010.51
2018-10-12T08:33:10.312Z,1010.51
2018-10-12T08:34:10.306Z,1010.57
2018-10-12T08:35:10.313Z,1010.52
2018-10-12T08:36:10.364Z,1010.49
2018-10-12T08:37:10.314Z,1010.54
2018-10-12T08:38:10.308Z,1010.55
2018-10-12T08:39:10.307Z,1010.50
2018-10-12T08:40:10.331Z,1010.45
2018-10-12T08:42:31.365Z,1010.44
2018-10-12T08:43:31.328Z,1010.42
2018-10-12T08:44:31.327Z,1010.48
2018-10-12T08:45:31.323Z,1010.46
2018-10-12T08:46:31.329Z,1010.43
2018-10-12T08:47:31.332Z,1010.45
2018-10-12T08:48:31.326Z,1010.46
2018-10-12T08:49:31.342Z,1010.48
2018-10-12T08:50:31.328Z,1010.47
2018-10-12T08:51:31.332Z,1010.46
2018-10-12T08:52:31.323Z,1010.43
2018-10-12T08:53:31.321Z,1010.43
2018-10-12T08:54:31.330Z,1010.45
2018-10-12T08:55:31.342Z,1010.43
2018-10-12T08:56:31.318Z,1010.44
2018-10-12T08:57:31.313Z,1010.44
2018-10-12T08:58:31.323Z,1010.47
2018-10-12T08:59:31.311Z,1010.49
2018-10-12T09:00:31.324Z,1010.49
2018-10-12T09:01:31.312Z,1010.47
2018-10-12T09:02:31.318Z,1010.46
2018-10-12T09:03:31.312Z,1010.47
2018-10-12T09:04:31.331Z,1010.47
2018-10-12T09:05:31.315Z,1010.46
2018-10-12T09:06:31.309Z,1010.48
2018-10-12T09:07:31.314Z,1010.47
2018-10-12T09:08:31.319Z,1010.50
2018-10-12T09:09:31.317Z,1010.49
2018-10-12T09:10:31.317Z,1010.49
2018-10-12T09:11:31.315Z,1010.48
2018-10-12T09:12:31.317Z,1010.47
2018-10-12T09:13:31.307Z,1010.47
2018-10-12T09:14:31.322Z,1010.47
2018-10-12T09:15:31.314Z,1010.42
2018-10-12T09:16:31.328Z,1010.44
2018-10-12T09:17:31.313Z,1010.42
2018-10-12T09:18:31.338Z,1010.38
2018-10-12T09:19:31.327Z,1010.42
2018-10-12T09:20:31.439Z,1010.41
2018-10-12T09:21:31.320Z,1010.41
2018-10-12T09:22:31.308Z,1010.40
2018-10-12T09:23:31.340Z,1010.47
2018-10-12T09:24:31.317Z,1010.44
2018-10-12T09:25:31.323Z,1010.44
2018-10-12T09:26:31.320Z,1010.40
2018-10-12T09:27:31.352Z,1010.44
2018-10-12T09:28:31.318Z,1010.41
2018-10-12T09:29:31.316Z,1010.40
2018-10-12T09:30:31.320Z,1010.41
2018-10-12T09:31:31.326Z,1010.39
2018-10-12T09:32:31.320Z,1010.42
2018-10-12T09:33:31.348Z,1010.42
2018-10-12T09:34:31.360Z,1010.41
2018-10-12T09:35:31.316Z,1010.37
2018-10-12T09:36:31.404Z,1010.35
2018-10-12T09:37:31.319Z,1010.36
2018-10-12T09:38:31.315Z,1010.33
2018-10-12T09:39:31.317Z,1010.31
2018-10-12T09:40:31.312Z,1010.34
2018-10-12T09:41:31.317Z,1010.35
2018-10-12T09:42:31.317Z,1010.35
2018-10-12T09:43:31.319Z,1010.36
2018-10-12T09:44:31.311Z,1010.36
2018-10-12T09:45:31.322Z,1010.40
2018-10-12T09:46:31.316Z,1010.42
2018-10-12T09:47:31.326Z,1010.36
2018-10-12T09:48:31.324Z,1010.38
2018-10-12T09:49:31.330Z,1010.38
2018-10-12T09:50:31.356Z,1010.38
2018-10-12T09:51:31.319Z,1010.39
2018-10-12T09:52:31.324Z,1010.38
2018-10-12T09:53:31.331Z,1010.39
2018-10-12T09:54:31.317Z,1010.37
2018-10-12T09:55:31.322Z,1010.41
2018-10-12T09:56:31.313Z,1010.39
2018-10-12T09:57:31.322Z,1010.38
2018-10-12T09:58:31.318Z,1010.37
2018-10-12T09:59:31.330Z,1010.35
2018-10-12T10:00:31.320Z,1010.37
2018-10-12T10:01:31.379Z,1010.36
2018-10-12T10:02:31.327Z,1010.38
2018-10-12T10:03:31.334Z,1010.37
2018-10-12T10:04:31.323Z,1010.33
2018-10-12T10:05:31.330Z,1010.37
2018-10-12T10:06:31.333Z,1010.33
2018-10-12T10:07:31.386Z,1010.34
2018-10-12T10:08:31.494Z,1010.35
2018-10-12T10:09:31.329Z,1010.36
2018-10-12T10:10:31.337Z,1010.29
2018-10-12T10:11:31.338Z,1010.31
2018-10-12T10:12:31.331Z,1010.33
2018-10-12T10:13:31.333Z,1010.28
2018-10-12T10:14:31.333Z,1010.33
2018-10-12T10:15:31.398Z,1010.28
2018-10-12T10:16:31.331Z,1010.29
2018-10-12T10:17:31.340Z,1010.28
2018-10-12T10:18:31.341Z,1010.29
2018-10-12T10:19:31.336Z,1010.26
2018-10-12T10:20:31.336Z,1010.28
2018-10-12T10:21:31.344Z,1010.29
2018-10-12T10:22:31.392Z,1010.28
2018-10-12T10:23:31.341Z,1010.32
2018-10-12T10:24:31.353Z,1010.27
2018-10-12T10:25:31.350Z,1010.27
2018-10-12T10:26:31.695Z,1010.25
2018-10-12T10:27:31.352Z,1010.28
2018-10-12T10:28:31.367Z,1010.26
2018-10-12T10:30:52.430Z,1010.24
2018-10-12T10:31:52.414Z,1010.23
2018-10-12T10:32:52.412Z,1010.24
2018-10-12T10:33:52.424Z,1010.22
2018-10-12T10:34:52.419Z,1010.26
2018-10-12T10:35:52.426Z,1010.26
2018-10-12T10:36:52.427Z,1010.24
2018-10-12T10:37:52.450Z,1010.24
2018-10-12T10:38:52.430Z,1010.23
2018-10-12T10:39:52.437Z,1010.26
2018-10-12T10:40:52.432Z,1010.27
2018-10-12T10:41:52.426Z,1010.30
2018-10-12T10:42:52.438Z,1010.30
2018-10-12T10:43:52.424Z,1010.34
2018-10-12T10:44:52.433Z,1010.32
2018-10-12T10:45:52.435Z,1010.30
2018-10-12T10:46:52.450Z,1010.27
2018-10-12T10:47:52.443Z,1010.24
2018-10-12T10:48:52.432Z,1010.22
2018-10-12T10:49:52.445Z,1010.21
2018-10-12T10:50:52.435Z,1010.25
2018-10-12T10:51:52.436Z,1010.23
2018-10-12T10:52:52.440Z,1010.20
2018-10-12T10:53:52.458Z,1010.16
2018-10-12T10:54:52.458Z,1010.17
2018-10-12T10:55:52.452Z,1010.18
2018-10-12T10:56:52.469Z,1010.17
2018-10-12T10:57:52.470Z,1010.15
2018-10-12T10:58:52.473Z,1010.16
2018-10-12T10:59:52.456Z,1010.15
2018-10-12T11:00:52.467Z,1010.14
2018-10-12T11:01:52.467Z,1010.07
2018-10-12T11:02:52.457Z,1010.06
2018-10-12T11:03:52.462Z,1010.05
2018-10-12T11:04:52.483Z,1010.04
2018-10-12T11:05:52.473Z,1010.04
2018-10-12T11:06:52.482Z,1010.05
2018-10-12T11:07:52.468Z,1010.04
2018-10-12T11:08:52.473Z,1010.01
2018-10-12T11:09:52.484Z,1010.04
2018-10-12T11:10:52.497Z,1010.04
2018-10-12T11:11:52.487Z,1010.00
2018-10-12T11:12:52.642Z,1010.01
2018-10-12T11:13:52.481Z,1009.99
2018-10-12T11:14:52.494Z,1009.98
2018-10-12T11:15:52.521Z,1009.96
2018-10-12T11:16:52.507Z,1009.97
2018-10-12T11:17:52.500Z,1009.92
2018-10-12T11:18:52.507Z,1009.95
2018-10-12T11:19:52.509Z,1009.94
2018-10-12T11:20:52.515Z,1009.93
2018-10-12T11:21:52.520Z,1009.95
2018-10-12T11:22:52.517Z,1009.92
2018-10-12T11:23:52.502Z,1009.90
2018-10-12T11:24:52.512Z,1009.93
2018-10-12T11:25:52.513Z,1009.92
2018-10-12T11:26:52.569Z,1009.88
2018-10-12T11:27:52.514Z,1009.86
2018-10-12T11:28:52.516Z,1009.89
2018-10-12T11:29:52.517Z,1009.92
2018-10-12T11:30:52.519Z,1009.92
2018-10-12T11:31:52.528Z,1009.91
2018-10-12T11:32:52.674Z,1009.93
2018-10-12T11:33:52.535Z,1009.92
2018-10-12T11:34:52.536Z,1009.90
2018-10-12T11:35:52.535Z,1009.90
2018-10-12T11:36:52.532Z,1009.89
2018-10-12T11:37:52.540Z,1009.81
2018-10-12T11:38:52.540Z,1009.82
2018-10-12T11:39:52.562Z,1009.78
2018-10-12T11:40:52.570Z,1009.79
2018-10-12T11:41:52.547Z,1009.79
2018-10-12T11:42:52.568Z,1009.78
2018-10-12T11:43:52.554Z,1009.81
2018-10-12T11:44:52.613Z,1009.74
2018-10-12T11:45:52.555Z,1009.77
2018-10-12T11:46:52.557Z,1009.74
2018-10-12T11:47:52.565Z,1009.70
2018-10-12T11:48:52.584Z,1009.71
2018-10-12T11:49:52.575Z,1009.70
2018-10-12T11:50:52.572Z,1009.70
2018-10-12T11:51:52.569Z,1009.70
2018-10-12T11:52:52.575Z,1009.69
2018-10-12T11:53:52.617Z,1009.68
2018-10-12T11:54:52.593Z,1009.68
2018-10-12T11:55:52.594Z,1009.69
2018-10-12T11:56:52.586Z,1009.66
2018-10-12T11:57:52.588Z,1009.67
2018-10-12T11:58:52.600Z,1009.63
2018-10-12T11:59:52.595Z,1009.63
2018-10-12T12:00:52.646Z,1009.61
2018-10-12T12:01:52.608Z,1009.56
2018-10-12T12:02:52.605Z,1009.60
2018-10-12T12:03:52.610Z,1009.57
2018-10-12T12:04:52.630Z,1009.59
2018-10-12T12:05:52.616Z,1009.60
2018-10-12T12:06:52.644Z,1009.56
2018-10-12T12:07:52.628Z,1009.58
2018-10-12T12:08:52.644Z,1009.55
2018-10-12T12:09:52.653Z,1009.54
2018-10-12T12:10:52.645Z,1009.54
2018-10-12T12:11:52.654Z,1009.56
2018-10-12T12:12:52.648Z,1009.52
2018-10-12T12:13:52.755Z,1009.50
2018-10-12T12:14:52.666Z,1009.49
2018-10-12T12:15:52.636Z,1009.46
2018-10-12T12:16:52.649Z,1009.45
2018-10-12T12:17:52.658Z,1009.46
2018-10-12T12:18:52.658Z,1009.46
2018-10-12T12:19:52.660Z,1009.48
2018-10-12T12:20:52.656Z,1009.46
2018-10-12T12:21:52.691Z,1009.46
2018-10-12T12:22:52.667Z,1009.46
2018-10-12T12:23:52.673Z,1009.46
2018-10-12T12:24:52.667Z,1009.45
2018-10-12T12:25:52.696Z,1009.43
2018-10-12T12:26:52.697Z,1009.42
2018-10-12T12:27:52.691Z,1009.46